• Join FlightAware (Why Join?)
  • Login
  • US Flag 
06:25AM EST


 

Airport Tracker/Info


-or-


 

Live Flight TrackerFlight Track Log ✈ N8596W ✈ 04-Dec-2013 ✈ KPNE - 2G9

Flight Track Log - Related Links

Times and Time Zones

All times are in EST time to prevent confusion due to time zone crossing. See the N8596W flight status page for this flight to view local times or setup timezone preferences in your user account.

Time Position Orientation Groundspeed Altitude Reporting Facility
EST Latitude Longitude Course Direction KTS MPH feet Rate Location/Type
02:22PM 40.1167 -75.0500 323° Northwest 107 123 1,300  Level Philadelphia TRACON
02:23PM 40.1333 -75.0667 323° Northwest 104 120 2,100 780 Climbing Philadelphia TRACON
02:24PM 40.1500 -75.1000 303° West 99 114 2,800 660 Climbing Philadelphia TRACON
02:25PM 40.1500 -75.1333 270° West 99 114 3,400 540 Climbing Philadelphia TRACON
02:26PM 40.1667 -75.1500 323° Northwest 98 113 3,900 240 Climbing Philadelphia TRACON
02:27PM 40.1667 -75.2000 270° West 121 139 3,900  Level Philadelphia TRACON
02:28PM 40.1667 -75.2500 270° West 116 133 4,000  Climbing Philadelphia TRACON
02:29PM 40.1833 -75.2833 303° West 115 132 4,000  Level Philadelphia TRACON
02:30PM 40.1833 -75.3333 270° West 115 132 4,000  Level Philadelphia TRACON
02:31PM 40.2000 -75.3667 303° West 121 139 4,000  Level Philadelphia TRACON
02:32PM 40.2000 -75.4167 270° West 119 137 4,000  Level Philadelphia TRACON
02:33PM 40.2000 -75.4500 270° West 118 136 4,000  Level Philadelphia TRACON
02:34PM 40.2167 -75.5000 294° West 119 137 4,000  Level Philadelphia TRACON
02:35PM 40.2167 -75.5333 270° West 118 136 4,000  Level Philadelphia TRACON
02:36PM 40.2167 -75.5833 270° West 114 131 4,000  Level Philadelphia TRACON
02:37PM 40.2167 -75.6167 270° West 114 131 4,000 60 Level Philadelphia TRACON
02:39PM 40.2026 -75.6731 252° West  Level FlightAware Approximate
02:46PM 40.1546 -75.9909 261° West  Level FlightAware Approximate
02:47PM 40.1491 -76.0366 261° West  Level FlightAware Approximate
02:48PM 40.1436 -76.0822 261° West  Level FlightAware Approximate
02:49PM 40.1381 -76.1279 261° West  Level FlightAware Approximate
02:50PM 40.1324 -76.1735 259° West  Level FlightAware Approximate
02:51PM 40.1259 -76.2190 259° West  Level FlightAware Approximate
02:52PM 40.1194 -76.2644 259° West  Level FlightAware Approximate
02:53PM 40.1160 -76.3092 268° West  Level FlightAware Approximate
02:54PM 40.1149 -76.3542 268° West  Level FlightAware Approximate
02:55PM 40.1137 -76.3993 268° West  Level FlightAware Approximate
02:56PM 40.1125 -76.4444 268° West  Level FlightAware Approximate
02:57PM 40.1113 -76.4894 268° West  Level FlightAware Approximate
02:58PM 40.1101 -76.5345 268° West  Level FlightAware Approximate
02:59PM 40.1088 -76.5795 268° West  Level FlightAware Approximate
03:00PM 40.1076 -76.6246 268° West  Level FlightAware Approximate
03:00PM 40.1136 -76.5442 268° West 123 142 6,000  Level Cleveland Center
03:01PM 40.1063 -76.6696 268° West  Level FlightAware Approximate
03:01PM 40.1119 -76.5967 268° West 123 142 6,000  Level Cleveland Center
03:02PM 40.1050 -76.7147 268° West  Level FlightAware Approximate
03:02PM 40.1081 -76.6425 264° West 125 144 5,900  Level Cleveland Center
03:03PM 40.1037 -76.7597 268° West  Level FlightAware Approximate
03:03PM 40.1083 -76.6861 270° West 122 140 5,900  Level Cleveland Center
03:04PM 40.1024 -76.8048 268° West  Level FlightAware Approximate
03:04PM 40.1086 -76.7317 270° West 123 142 5,900  Level Cleveland Center
03:05PM 40.1010 -76.8498 268° West  Level FlightAware Approximate
03:05PM 40.1081 -76.7772 269° West 124 143 5,900  Level Cleveland Center
03:06PM 40.1047 -76.8306 265° West 125 144 5,900  Level Cleveland Center
03:07PM 40.1042 -76.8750 269° West 123 142 5,900  Level Cleveland Center
03:08PM 40.1053 -76.9203 272° West 124 143 5,900  Level Cleveland Center
03:09PM 40.1061 -76.9653 271° West 123 142 5,900  Level Cleveland Center
03:10PM 40.1036 -77.0089 266° West 122 140 5,900  Level Cleveland Center
03:11PM 40.0983 -77.0508 261° West 120 138 5,900  Level Cleveland Center
03:12PM 40.0997 -77.1056 272° West 122 140 5,900  Level Cleveland Center
03:13PM 40.1003 -77.1511 271° West 123 142 6,000  Climbing Cleveland Center
03:14PM 40.0989 -77.1950 268° West 123 142 6,000 -60 Level Cleveland Center
03:15PM 40.0956 -77.2403 265° West 125 144 5,900 -60 Descending Cleveland Center
03:16PM 40.0947 -77.2844 269° West 124 143 5,900 -60 Level Cleveland Center
03:17PM 40.0950 -77.3306 270° West 125 144 5,800  Descending Cleveland Center
03:18PM 40.0981 -77.3822 274° West 121 139 5,900  Climbing Cleveland Center
03:19PM 40.0961 -77.4264 267° West 122 140 5,900  Level Cleveland Center
03:20PM 40.0881 -77.4697 256° West 123 142 5,900  Level Cleveland Center
03:22PM 40.0856 -77.5139 266° West 122 140 5,900  Level Cleveland Center
03:23PM 40.0878 -77.5569 274° West 121 139 5,900  Level Cleveland Center
03:24PM 40.0894 -77.6025 273° West 122 140 5,900  Level Cleveland Center
03:25PM 40.0850 -77.6531 263° West 118 136 6,000  Climbing Cleveland Center
03:26PM 40.0822 -77.6956 265° West 117 135 5,900 -60 Descending Cleveland Center
03:27PM 40.0828 -77.7386 271° West 119 137 5,900  Level Cleveland Center
03:28PM 40.0817 -77.7800 268° West 116 133 5,900  Level Cleveland Center
03:29PM 40.0797 -77.8228 267° West 116 133 5,900  Level Cleveland Center
03:30PM 40.0764 -77.8658 264° West 117 135 6,000  Climbing Cleveland Center
03:30PM 40.0758 -77.8928 268° West 119 137 5,900 -120 Descending Cleveland Center
03:31PM 40.0764 -77.9181 272° West 119 137 5,900  Level Cleveland Center
03:31PM 40.0772 -77.9339 274° West 119 137 5,900  Level Cleveland Center
03:32PM 40.0769 -77.9603 269° West 119 137 5,900  Level Cleveland Center
03:32PM 40.0761 -77.9772 266° West 118 136 5,900  Level Cleveland Center
03:33PM 40.0742 -78.0028 264° West 118 136 5,900 60 Level Cleveland Center
03:33PM 40.0731 -78.0178 264° West 117 135 6,000 60 Climbing Cleveland Center
03:34PM 40.0722 -78.0450 268° West 118 136 6,000  Level Cleveland Center
03:34PM 40.0719 -78.0614 269° West 120 138 6,000  Level Cleveland Center
03:35PM 40.0711 -78.0881 268° West 118 136 6,000  Level Cleveland Center
03:35PM 40.0706 -78.1075 268° West 120 138 6,000  Level Cleveland Center
03:36PM 40.0714 -78.1397 272° West 119 137 6,000  Level Cleveland Center
03:36PM 40.0694 -78.1511 257° West 120 138 6,000  Level Cleveland Center
03:37PM 40.0689 -78.1822 269° West 119 137 6,000  Level Cleveland Center
03:37PM 40.0683 -78.1944 267° West 120 138 6,000  Level Cleveland Center
03:38PM 40.0667 -78.2247 266° West 118 136 6,000  Level Cleveland Center
03:38PM 40.0650 -78.2378 261° West 120 138 6,000  Level Cleveland Center
03:39PM 40.0647 -78.2686 269° West 120 138 6,000  Level Cleveland Center
03:39PM 40.0636 -78.2839 265° West 120 138 6,000  Level Cleveland Center
03:40PM 40.0631 -78.3122 269° West 121 139 6,000  Level Cleveland Center
03:40PM 40.0625 -78.3272 267° West 120 138 6,000  Level Cleveland Center
03:41PM 40.0625 -78.3636 270° West 120 138 6,000  Level Cleveland Center
03:41PM 40.0614 -78.3681 252° West 121 139 6,000  Level Cleveland Center
03:42PM 40.0619 -78.4144 271° West 122 140 6,000  Level Cleveland Center
03:43PM 40.0600 -78.4517 266° West 121 139 6,000  Level Cleveland Center
03:43PM 40.0583 -78.4606 256° West 123 142 6,000  Level Cleveland Center
03:44PM 40.0578 -78.4950 269° West 122 140 6,000  Level Cleveland Center
03:44PM 40.0572 -78.5039 265° West 122 140 6,000  Level Cleveland Center
03:45PM 40.0569 -78.5394 269° West 123 142 6,000 -120 Level Cleveland Center
03:45PM 40.0558 -78.5472 259° West 123 142 5,900 -900 Descending Cleveland Center
03:46PM 40.0553 -78.5881 269° West 129 148 5,100 -780 Descending Cleveland Center
03:47PM 40.0536 -78.6472 268° West 134 154 4,400 -300 Descending Cleveland Center
03:48PM 40.0503 -78.6967 265° West 129 148 4,500 60 Climbing Cleveland Center
03:48PM 40.0508 -78.6950 66° East 134 154 4,500  Level Cleveland Center
03:49PM 40.0489 -78.7400 267° West 122 140 4,500  Level Cleveland Center
03:49PM 40.0492 -78.7411 288° West 130 150 4,500  Level Cleveland Center
03:51PM 40.0416 -78.7851 257° West  Level FlightAware Approximate
03:58PM 40.0333 -79.0000 270° West  Level FlightAware Approximate
03:59PM 40.0389 -79.0150 270° West  Level Estimated
04:00PM 40.0389 -79.0150 270° West  Level Estimated